Time;durP1;ratioP1;P1;durP2;ratioP2;P2;SDS_P1;SDS_P2;PMS_P1;PMS_P2;Temp;Humidity;BMP_temperature;BMP_pressure;BME280_temperature;BME280_humidity;BME280_pressure;Samples;Min_cycle;Max_cycle;Signal;HPM_P1;HPM_P2
2021/11/30 06:49:05;;;;;;;;;11.25;9.75;;;;;6.46;71.70;101450.53;6152373;22;1406589;-86
2021/11/30 06:51:31;;;;;;;;;14.25;11.50;;;;;6.44;71.37;101462.69;6176077;23;44748;-87
2021/11/30 06:53:58;;;;;;;;;12.50;10.00;;;;;6.49;71.48;101463.69;6192651;23;45264;-87
2021/11/30 06:56:24;;;;;;;;;9.25;9.00;;;;;6.55;71.27;101474.34;6187910;23;45383;-87
2021/11/30 06:58:49;;;;;;;;;10.75;10.50;;;;;6.63;71.46;101480.63;6185739;23;46874;-88
2021/11/30 07:01:15;;;;;;;;;13.25;11.00;;;;;6.69;71.44;101483.38;6186568;23;45301;-86
2021/11/30 07:03:44;;;;;;;;;12.00;10.25;;;;;6.55;71.41;101456.91;6159758;23;45307;-87
2021/11/30 07:06:19;;;;;;;;;13.00;12.25;;;;;6.62;71.33;101466.63;6185952;23;45263;-87
2021/11/30 07:13:53;;;;;;;;;12.50;12.00;;;;;6.68;71.17;101486.84;6186577;23;45138;-86
2021/11/30 07:16:19;;;;;;;;;13.50;12.25;;;;;6.74;71.27;101492.22;6187490;23;45175;-87
2021/11/30 07:18:45;;;;;;;;;8.00;7.00;;;;;6.68;71.63;101484.22;6160025;23;47066;-85
2021/11/30 07:21:13;;;;;;;;;11.50;10.50;;;;;6.70;71.36;101493.00;6187825;23;45333;-85
2021/11/30 07:23:42;;;;;;;;;12.75;12.00;;;;;6.58;71.22;101470.03;6189681;23;45262;-88
2021/11/30 07:26:07;;;;;;;;;10.00;9.75;;;;;6.78;71.39;101506.25;6161823;23;45365;-86
2021/11/30 07:28:36;;;;;;;;;15.25;12.00;;;;;6.65;71.52;101484.16;6160284;23;45986;-87
2021/11/30 07:31:10;;;;;;;;;8.75;8.75;;;;;6.75;71.50;101496.59;6161555;23;45218;-89
2021/11/30 07:33:41;;;;;;;;;12.50;11.50;;;;;6.81;71.77;101508.94;6190959;23;45204;-89
2021/11/30 07:36:10;;;;;;;;;13.25;12.00;;;;;6.84;71.59;101515.16;6162032;23;45407;-90
2021/11/30 07:38:39;;;;;;;;;11.00;11.00;;;;;6.69;71.56;101501.69;6188252;23;45348;-88
2021/11/30 07:41:14;;;;;;;;;9.75;8.50;;;;;6.80;71.81;101507.19;6189808;23;45285;-89
2021/11/30 07:43:40;;;;;;;;;12.00;10.50;;;;;6.76;71.85;101515.81;6192368;23;45188;-90
2021/11/30 07:49:32;;;;;;;;;;;;;;;;;;;;;
2021/11/30 07:52:13;;;;;;;;;14.25;14.25;;;;;6.89;71.72;101515.25;6192960;23;71919;-95
2021/11/30 07:55:02;;;;;;;;;16.00;12.25;;;;;6.85;71.70;101518.66;6168918;23;45361;-94
2021/11/30 07:57:54;;;;;;;;;14.25;12.00;;;;;6.75;71.78;101493.13;6165454;23;45333;-93
2021/11/30 08:00:22;;;;;;;;;16.25;14.00;;;;;6.73;71.58;101495.69;6165725;23;46680;-93
2021/11/30 08:03:59;;;;;;;;;;;;;;;;;;;;;
2021/11/30 08:06:44;;;;;;;;;;;;;;;;;;;;;
2021/11/30 08:13:03;;;;;;;;;13.00;12.25;;;;;6.83;71.72;101523.84;6046175;23;46424;-94
2021/11/30 08:19:12;;;;;;;;;16.00;14.75;;;;;6.74;71.69;101494.84;6036085;23;45316;-93
2021/11/30 08:21:38;;;;;;;;;17.25;16.50;;;;;6.74;71.71;101512.28;6079135;22;45514;-91
2021/11/30 08:24:04;;;;;;;;;17.00;15.50;;;;;6.88;71.88;101529.19;6179190;22;46450;-91
2021/11/30 08:26:30;;;;;;;;;12.25;12.25;;;;;6.77;71.92;101499.28;6167757;23;45643;-93
2021/11/30 08:28:58;;;;;;;;;12.75;12.00;;;;;6.91;71.93;101531.88;6166322;23;45125;-90
2021/11/30 08:31:24;;;;;;;;;16.50;16.50;;;;;6.83;71.81;101517.72;6167895;23;45387;-91
2021/11/30 08:33:51;;;;;;;;;18.00;17.25;;;;;6.81;71.69;101507.22;6168500;23;47048;-92
2021/11/30 08:36:17;;;;;;;;;15.00;15.00;;;;;6.93;71.87;101526.69;6168462;23;44896;-91
2021/11/30 08:38:43;;;;;;;;;14.75;11.00;;;;;6.80;71.70;101509.81;6175369;22;45445;-92
2021/11/30 08:41:11;;;;;;;;;17.75;17.25;;;;;6.98;71.63;101533.81;6208836;22;44900;-95
2021/11/30 08:43:39;;;;;;;;;12.75;12.25;;;;;6.88;71.87;101504.75;6183612;22;47139;-93
2021/11/30 08:46:04;;;;;;;;;17.50;14.50;;;;;6.89;71.78;101511.75;6183991;22;44654;-93
2021/11/30 08:48:30;;;;;;;;;20.75;16.75;;;;;6.89;71.72;101509.13;6183893;22;44926;-93
2021/11/30 08:51:05;;;;;;;;;17.75;17.00;;;;;6.89;71.87;101509.13;6183933;22;44872;-94
2021/11/30 08:53:34;;;;;;;;;18.50;15.75;;;;;6.99;71.93;101526.84;6183429;22;47115;-92
2021/11/30 08:56:01;;;;;;;;;17.75;17.75;;;;;6.97;71.72;101524.16;6183609;22;44678;-93
2021/11/30 08:58:34;;;;;;;;;13.75;12.00;;;;;6.84;71.96;101485.47;6184566;22;44806;-92
2021/11/30 09:01:07;;;;;;;;;19.00;18.00;;;;;7.05;71.97;101508.63;6184508;22;44868;-95
2021/11/30 09:03:35;;;;;;;;;20.00;17.00;;;;;7.06;71.99;101505.19;6183251;22;47043;-90
2021/11/30 09:06:22;;;;;;;;;20.75;17.25;;;;;7.14;72.22;101516.72;6210132;22;44719;-91
2021/11/30 09:09:37;;;;;;;;;16.50;15.00;;;;;7.03;71.94;101494.63;6183604;22;44768;-90
2021/11/30 09:12:39;;;;;;;;;;;;;;;;;;;;;
2021/11/30 09:15:08;;;;;;;;;20.50;18.50;;;;;7.17;72.15;101502.81;6206404;22;73872;-89
2021/11/30 09:17:46;;;;;;;;;18.00;14.25;;;;;7.27;72.04;101515.25;6209736;22;44740;-90
2021/11/30 09:20:23;;;;;;;;;;;;;;;;;;;;;
2021/11/30 09:23:24;;;;;;;;;;;;;;;;;;;;;
2021/11/30 09:26:00;;;;;;;;;;;;;;;;;;;;;
2021/11/30 09:28:28;;;;;;;;;14.75;13.50;;;;;7.47;71.73;101527.06;6208770;22;72234;-88
2021/11/30 09:30:57;;;;;;;;;23.25;18.00;;;;;7.45;72.04;101515.66;6181728;22;44635;-92
2021/11/30 09:33:26;;;;;;;;;19.50;18.25;;;;;7.43;71.70;101505.97;6181251;23;44843;-92
2021/11/30 09:36:33;;;;;;;;;;;;;;;;;;;;;
2021/11/30 09:42:43;;;;;;;;;;;;;;;;;;;;;
2021/11/30 09:48:57;;;;;;;;;;;;;;;;;;;;;
2021/11/30 09:51:30;;;;;;;;;24.50;19.50;;;;;7.61;71.99;101506.38;6188252;23;71322;-90
2021/11/30 09:57:30;;;;;;;;;;;;;;;;;;;;;
2021/11/30 10:00:13;;;;;;;;;;;;;;;;;;;;;
2021/11/30 10:03:21;;;;;;;;;;;;;;;;;;;;;
2021/11/30 10:05:56;;;;;;;;;21.50;20.75;;;;;7.70;71.77;101527.53;6193090;23;70104;-91
2021/11/30 10:08:44;;;;;;;;;22.75;20.00;;;;;7.79;71.82;101542.56;6167937;23;45203;-91
2021/11/30 10:12:30;;;;;;;;;18.75;18.25;;;;;7.70;71.88;101518.81;6168820;23;46947;-90
2021/11/30 10:18:42;;;;;;;;;19.00;17.75;;;;;7.92;72.02;101528.84;6037634;23;45591;-91
2021/11/30 10:24:21;;;;;;;;;20.75;18.00;;;;;7.92;71.69;101501.75;6029759;23;45834;-86
2021/11/30 10:31:03;;;;;;;;;17.00;15.00;;;;;8.10;71.80;101528.34;5993050;23;44734;-91
2021/11/30 10:34:15;;;;;;;;;19.00;16.50;;;;;8.00;71.77;101504.53;5969877;23;44796;-89
2021/11/30 10:41:51;;;;;;;;;;;;;;;;;;;;;
2021/11/30 10:44:06;;;;;;;;;13.75;13.00;;;;;8.06;71.61;101496.78;5967447;23;45432;-92
2021/11/30 10:54:20;;;;;;;;;15.00;13.50;;;;;8.18;71.44;101494.38;5959935;23;45419;-89
2021/11/30 10:57:36;;;;;;;;;;;;;;;;;;;;;
2021/11/30 11:15:15;;;;;;;;;;;;;;;;;;;;;
2021/11/30 11:37:11;;;;;;;;;;;;;;;;;;;;;
2021/11/30 11:40:03;;;;;;;;;;;;;;;;;;;;;
2021/11/30 11:54:31;;;;;;;;;;;;;;;;;;;;;
2021/11/30 13:05:22;;;;;;;;;12.25;8.50;;;;;9.90;68.80;101389.97;5790918;24;45764;-86
2021/11/30 13:11:30;;;;;;;;;9.25;9.25;;;;;10.06;68.38;101376.97;5780126;24;45311;-87
2021/11/30 13:17:07;;;;;;;;;9.75;9.25;;;;;9.88;68.51;101375.91;5891785;23;45524;-83
2021/11/30 13:30:09;;;;;;;;;15.75;9.00;;;;;9.42;69.74;101364.06;6015124;23;45453;-85
2021/11/30 15:20:52;;;;;;;;;14.75;14.00;;;;;9.10;74.38;101343.56;6258121;22;45763;-89
2021/11/30 15:23:27;;;;;;;;;;;;;;;;;;;;;
2021/11/30 15:26:01;;;;;;;;;13.75;13.75;;;;;9.17;74.53;101349.78;6275928;22;72170;-86
2021/11/30 15:28:50;;;;;;;;;17.00;16.50;;;;;9.10;74.58;101338.31;6278973;22;45554;-87
2021/11/30 15:31:20;;;;;;;;;10.25;10.25;;;;;9.20;74.32;101350.69;6259023;22;45645;-88
2021/11/30 15:34:02;;;;;;;;;;;;;;;;;;;;;
2021/11/30 15:36:41;;;;;;;;;14.50;13.75;;;;;9.23;74.18;101348.09;6273823;22;71269;-90
2021/11/30 15:39:21;;;;;;;;;11.00;10.00;;;;;9.09;74.00;101315.56;6257128;22;47115;-87
2021/11/30 15:46:04;;;;;;;;;;;;;;;;;;;;;
2021/11/30 15:48:30;;;;;;;;;12.00;11.75;;;;;9.15;73.74;101310.34;6250254;22;72172;-84
2021/11/30 15:50:55;;;;;;;;;10.00;10.00;;;;;9.13;73.57;101312.06;6250678;22;46909;-85
2021/11/30 15:53:21;;;;;;;;;16.00;13.00;;;;;9.29;73.75;101342.03;6278129;22;45745;-89
2021/11/30 16:07:38;;;;;;;;;;;;;;;;;;;;;
2021/11/30 16:24:52;;;;;;;;;;;;;;;;;;;;;
2021/11/30 16:30:55;;;;;;;;;14.00;10.50;;;;;9.55;72.68;101278.34;6027901;23;45512;-85
2021/11/30 16:37:39;;;;;;;;;8.75;8.00;;;;;9.48;72.43;101249.38;6120603;23;45812;-84
2021/11/30 16:41:04;;;;;;;;;;;;;;;;;;;;;
2021/11/30 16:44:48;;;;;;;;;10.25;8.75;;;;;9.55;71.95;101241.56;6118292;23;73936;-83
2021/11/30 16:47:30;;;;;;;;;;;;;;;;;;;;;
2021/11/30 17:00:29;;;;;;;;;7.00;7.00;;;;;9.75;71.71;101250.47;5989792;23;45421;-83
2021/11/30 17:03:45;;;;;;;;;;;;;;;;;;;;;
2021/11/30 17:06:14;;;;;;;;;10.00;9.00;;;;;9.72;71.41;101234.66;6108656;23;73154;-85
2021/11/30 17:08:52;;;;;;;;;13.67;11.00;;;;;9.72;71.45;101237.31;6119730;23;45498;-84
2021/11/30 17:15:28;;;;;;;;;;;;;;;;;;;;;
2021/11/30 17:18:51;;;;;;;;;9.75;7.00;;;;;9.75;71.09;101218.91;6118208;23;70541;-85
2021/11/30 17:21:44;;;;;;;;;;;;;;;;;;;;;
2021/11/30 17:24:41;;;;;;;;;;;;;;;;;;;;;
2021/11/30 17:27:20;;;;;;;;;;;;;;;;;;;;;
2021/11/30 17:30:32;;;;;;;;;;;;;;;;;;;;;
2021/11/30 17:40:57;;;;;;;;;;;;;;;;;;;;;
2021/11/30 17:43:46;;;;;;;;;12.00;11.00;;;;;10.00;70.55;101224.38;6119639;23;73402;-84
2021/11/30 17:46:19;;;;;;;;;12.25;12.25;;;;;9.91;70.59;101209.38;6169189;22;45434;-83
2021/11/30 17:48:47;;;;;;;;;7.75;7.75;;;;;9.88;70.51;101209.38;6246648;22;45525;-83
2021/11/30 17:51:26;;;;;;;;;;;;;;;;;;;;;
2021/11/30 17:53:59;;;;;;;;;6.00;4.50;;;;;9.98;70.36;101221.72;6273123;22;71796;-86
2021/11/30 17:57:08;;;;;;;;;12.00;8.00;;;;;9.97;70.46;101235.75;6271143;22;45929;-84
2021/11/30 18:00:44;;;;;;;;;;;;;;;;;;;;;
2021/11/30 18:06:58;;;;;;;;;;;;;;;;;;;;;
2021/11/30 18:13:02;;;;;;;;;7.75;5.50;;;;;9.86;70.38;101196.22;6056750;23;45407;-84
2021/11/30 18:16:24;;;;;;;;;;;;;;;;;;;;;
2021/11/30 18:20:07;;;;;;;;;;;;;;;;;;;;;
